Time;durP1;ratioP1;P1;durP2;ratioP2;P2;SDS_P1;SDS_P2;PMS_P1;PMS_P2;Temp;Humidity;BMP_temperature;BMP_pressure;BME280_temperature;BME280_humidity;BME280_pressure;Samples;Min_cycle;Max_cycle;Signal;HPM_P1;HPM_P2
2021/08/16 00:00:05;;;;;;;6.22;4.53;;;;;;;22.05;66.88;99764.63;4913460;29;20048;-80
2021/08/16 00:02:33;;;;;;;6.60;4.50;;;;;;;22.01;67.36;99768.69;4912384;29;20147;-80
2021/08/16 00:05:00;;;;;;;6.30;4.78;;;;;;;22.02;68.03;99756.88;4914085;29;20055;-80
2021/08/16 00:07:26;;;;;;;7.20;4.40;;;;;;;22.03;68.31;99755.88;4917736;29;20062;-80
2021/08/16 00:09:53;;;;;;;8.73;5.10;;;;;;;22.04;68.83;99762.94;4914794;29;20047;-80
2021/08/16 00:12:20;;;;;;;7.70;5.22;;;;;;;22.04;69.23;99760.25;4918648;29;20056;-80
2021/08/16 00:14:47;;;;;;;7.25;4.70;;;;;;;22.02;69.39;99761.44;4920989;29;20044;-80
2021/08/16 00:17:14;;;;;;;7.65;5.20;;;;;;;22.02;69.70;99767.66;4921930;29;20103;-80
2021/08/16 00:19:41;;;;;;;9.95;5.45;;;;;;;22.03;70.03;99765.81;4926890;29;20048;-80
2021/08/16 00:22:07;;;;;;;8.63;5.70;;;;;;;22.02;70.32;99759.59;4908570;29;20060;-79
2021/08/16 00:24:34;;;;;;;7.95;5.22;;;;;;;21.99;70.56;99757.19;4932130;29;20115;-79
2021/08/16 00:27:00;;;;;;;6.22;4.93;;;;;;;21.96;70.79;99757.47;4923653;29;20048;-80
2021/08/16 00:29:27;;;;;;;8.07;5.40;;;;;;;21.95;71.56;99763.03;4928625;29;20055;-80
2021/08/16 00:31:55;;;;;;;9.43;5.93;;;;;;;21.92;71.55;99756.09;4931349;29;20056;-80
2021/08/16 00:34:21;;;;;;;6.93;5.72;;;;;;;21.88;72.05;99749.34;4925517;29;20063;-79
2021/08/16 00:36:48;;;;;;;8.30;5.47;;;;;;;21.87;72.09;99755.75;4931974;29;20139;-80
2021/08/16 00:39:15;;;;;;;7.60;5.90;;;;;;;21.88;72.41;99752.03;4934046;29;20107;-80
2021/08/16 00:41:45;;;;;;;7.20;5.97;;;;;;;21.84;73.20;99747.16;4904960;29;20059;-80
2021/08/16 00:44:12;;;;;;;9.65;5.95;;;;;;;21.81;73.34;99734.81;4919823;29;20076;-81
2021/08/16 00:46:39;;;;;;;10.13;5.72;;;;;;;21.79;73.58;99736.84;4922022;29;20158;-80
2021/08/16 00:49:06;;;;;;;9.27;5.95;;;;;;;21.76;74.30;99747.94;4916151;29;20048;-80
2021/08/16 00:51:35;;;;;;;9.80;5.85;;;;;;;21.73;74.48;99736.59;4919954;29;20529;-80
2021/08/16 00:54:03;;;;;;;9.48;5.90;;;;;;;21.71;74.58;99747.56;4930828;29;20067;-81
2021/08/16 00:56:31;;;;;;;8.70;6.15;;;;;;;21.67;74.86;99747.03;4927388;29;20052;-80
2021/08/16 00:58:58;;;;;;;7.28;6.07;;;;;;;21.63;75.03;99744.81;4919093;29;20625;-80
2021/08/16 01:01:25;;;;;;;11.48;6.40;;;;;;;21.59;75.39;99749.66;4913463;29;20476;-80
2021/08/16 01:03:52;;;;;;;9.27;6.20;;;;;;;21.56;75.52;99743.78;4920579;29;20044;-80
2021/08/16 01:06:19;;;;;;;9.93;6.75;;;;;;;21.54;75.47;99745.78;4899298;29;20131;-80
2021/08/16 01:08:47;;;;;;;10.50;6.35;;;;;;;21.51;75.59;99746.09;4917720;29;20078;-80
2021/08/16 01:11:15;;;;;;;10.45;6.25;;;;;;;21.46;75.54;99743.00;4921288;29;20423;-80
2021/08/16 01:13:42;;;;;;;7.88;5.78;;;;;;;21.48;75.80;99754.47;4921165;29;20052;-80
2021/08/16 01:16:09;;;;;;;10.07;6.18;;;;;;;21.47;76.03;99767.09;4919024;29;20084;-80
2021/08/16 01:18:37;;;;;;;8.43;5.90;;;;;;;21.45;76.15;99763.72;4908964;29;20063;-80
2021/08/16 01:21:09;;;;;;;8.25;5.97;;;;;;;21.46;75.92;99769.94;4930533;29;20055;-80
2021/08/16 01:23:41;;;;;;;9.30;5.82;;;;;;;21.41;76.16;99775.78;4919407;29;20056;-80
2021/08/16 01:26:08;;;;;;;8.70;5.65;;;;;;;21.38;76.20;99767.19;4914992;29;20139;-80
2021/08/16 01:28:35;;;;;;;7.97;5.78;;;;;;;21.30;76.26;99762.59;4917212;29;20131;-80
2021/08/16 01:31:04;;;;;;;8.70;5.95;;;;;;;21.23;76.44;99758.84;4918330;29;20055;-80
2021/08/16 01:33:32;;;;;;;7.10;5.72;;;;;;;21.16;76.71;99758.56;4917084;29;20047;-80
2021/08/16 01:35:58;;;;;;;8.70;5.88;;;;;;;21.14;76.57;99765.09;4912648;29;20059;-80
2021/08/16 01:38:28;;;;;;;8.38;6.20;;;;;;;21.11;76.73;99765.41;4920302;29;20103;-80
2021/08/16 01:40:56;;;;;;;9.65;5.82;;;;;;;21.10;76.67;99774.47;4925217;29;20116;-80
2021/08/16 01:43:22;;;;;;;7.57;5.60;;;;;;;21.08;76.66;99773.81;4923795;29;20043;-81
2021/08/16 01:45:51;;;;;;;9.25;5.63;;;;;;;21.05;76.42;99776.81;4928437;29;20140;-80
2021/08/16 01:48:18;;;;;;;9.38;5.10;;;;;;;21.03;76.75;99774.25;4935772;29;20052;-81
2021/08/16 01:50:45;;;;;;;8.10;5.80;;;;;;;21.04;76.39;99785.88;4909100;29;20052;-80
2021/08/16 01:53:13;;;;;;;8.95;5.65;;;;;;;21.01;76.69;99795.09;4922578;29;20492;-80
2021/08/16 01:55:40;;;;;;;9.82;5.15;;;;;;;21.01;75.87;99795.09;4919775;29;20055;-80
2021/08/16 01:58:08;;;;;;;11.45;5.18;;;;;;;21.01;75.16;99787.88;4910856;29;20063;-80
2021/08/16 02:00:35;;;;;;;5.95;4.50;;;;;;;21.00;75.31;99790.72;4917394;29;20055;-80
2021/08/16 02:03:03;;;;;;;8.35;4.80;;;;;;;21.00;74.90;99783.50;4918434;29;20076;-80
2021/08/16 02:05:55;;;;;;;7.22;4.68;;;;;;;21.03;74.14;99790.41;4923663;29;20666;-80
2021/08/16 02:08:21;;;;;;;9.57;4.93;;;;;;;21.04;74.03;99799.34;4926501;29;20171;-80
2021/08/16 02:10:48;;;;;;;7.20;4.28;;;;;;;21.02;73.67;99794.94;4932758;29;20111;-80
2021/08/16 02:13:15;;;;;;;9.80;5.00;;;;;;;21.01;73.26;99787.03;4931295;29;20151;-80
2021/08/16 02:15:41;;;;;;;8.15;4.40;;;;;;;20.97;73.23;99775.72;4930875;29;20075;-80
2021/08/16 02:18:08;;;;;;;5.22;4.00;;;;;;;20.92;73.48;99790.66;4912943;29;20048;-80
2021/08/16 02:20:35;;;;;;;7.30;4.70;;;;;;;20.92;74.01;99791.50;4939711;29;20143;-80
2021/08/16 02:23:01;;;;;;;7.20;4.22;;;;;;;20.89;74.04;99794.50;4915336;29;20052;-80
2021/08/16 02:25:28;;;;;;;6.93;4.65;;;;;;;20.88;74.13;99797.31;4912455;29;20055;-80
2021/08/16 02:27:55;;;;;;;8.75;4.75;;;;;;;20.87;73.68;99790.25;4913322;29;20075;-80
2021/08/16 02:30:22;;;;;;;7.03;4.53;;;;;;;20.84;73.52;99799.47;4919756;29;20066;-80
2021/08/16 02:32:49;;;;;;;8.07;5.30;;;;;;;20.83;72.82;99791.53;4916627;29;20040;-80
2021/08/16 02:35:15;;;;;;;7.93;5.20;;;;;;;20.83;72.44;99799.63;4914410;29;20051;-80
2021/08/16 02:37:42;;;;;;;8.05;5.30;;;;;;;20.85;71.66;99803.84;4923368;29;20106;-80
2021/08/16 02:40:10;;;;;;;7.45;5.32;;;;;;;20.85;70.50;99801.16;4915436;29;20052;-80
2021/08/16 02:42:37;;;;;;;12.52;5.70;;;;;;;20.84;70.04;99796.78;4915699;29;20531;-80
2021/08/16 02:45:09;;;;;;;10.32;5.10;;;;;;;20.90;69.46;99806.94;4917581;29;20104;-80
2021/08/16 02:47:37;;;;;;;14.57;5.40;;;;;;;20.92;68.93;99812.19;4910585;29;20049;-80
2021/08/16 02:50:04;;;;;;;8.73;5.13;;;;;;;20.93;68.71;99812.03;4920133;29;20044;-80
2021/08/16 02:52:30;;;;;;;10.63;5.10;;;;;;;20.96;68.67;99816.25;4935177;29;20444;-80
2021/08/16 02:54:58;;;;;;;11.88;5.70;;;;;;;20.96;68.36;99805.47;4921665;29;20346;-80
2021/08/16 02:57:25;;;;;;;10.40;5.50;;;;;;;20.98;68.55;99806.16;4927730;29;20128;-80
2021/08/16 02:59:52;;;;;;;10.13;5.68;;;;;;;20.98;68.80;99804.31;4901819;29;20058;-80
2021/08/16 03:02:18;;;;;;;10.10;5.20;;;;;;;20.98;68.86;99808.88;4916910;29;20052;-81
2021/08/16 03:04:46;;;;;;;10.95;5.80;;;;;;;20.95;69.26;99810.00;4903396;29;20509;-80
2021/08/16 03:07:12;;;;;;;10.30;5.32;;;;;;;20.92;69.21;99813.03;4914459;29;20507;-80
2021/08/16 03:09:39;;;;;;;10.63;5.55;;;;;;;20.90;69.60;99815.03;4918097;29;20040;-80
2021/08/16 03:12:08;;;;;;;10.88;5.85;;;;;;;20.89;69.70;99821.41;4901593;29;20044;-80
2021/08/16 03:14:34;;;;;;;7.93;5.07;;;;;;;20.83;70.26;99822.00;4915161;29;20057;-80
2021/08/16 03:17:01;;;;;;;10.30;5.65;;;;;;;20.82;69.92;99827.53;4927492;29;20048;-79
2021/08/16 03:19:28;;;;;;;8.68;5.10;;;;;;;20.78;70.18;99831.53;4935377;29;20088;-79
2021/08/16 03:21:54;;;;;;;10.13;5.88;;;;;;;20.76;70.89;99836.22;4935764;29;20510;-79
2021/08/16 03:24:23;;;;;;;9.00;5.20;;;;;;;20.73;70.93;99823.06;4935918;29;20087;-79
2021/08/16 03:26:50;;;;;;;11.57;5.40;;;;;;;20.68;70.64;99834.25;4932606;29;20056;-80
2021/08/16 03:29:17;;;;;;;9.35;5.53;;;;;;;20.66;70.69;99842.47;4928977;29;20116;-80
2021/08/16 03:31:44;;;;;;;9.32;5.50;;;;;;;20.65;70.85;99845.31;4926733;29;20066;-80
2021/08/16 03:34:12;;;;;;;9.30;5.72;;;;;;;20.62;71.13;99842.91;4926769;29;20072;-80
2021/08/16 03:36:38;;;;;;;9.35;5.53;;;;;;;20.60;70.94;99845.78;4928655;29;20056;-80
2021/08/16 03:39:05;;;;;;;11.63;5.47;;;;;;;20.60;70.91;99847.63;4932407;29;20054;-80
2021/08/16 03:41:33;;;;;;;7.30;5.10;;;;;;;20.58;70.88;99852.31;4936529;29;20067;-80
2021/08/16 03:44:00;;;;;;;9.93;5.45;;;;;;;20.55;70.95;99849.91;4939156;29;20040;-80
2021/08/16 03:46:27;;;;;;;11.32;4.95;;;;;;;20.51;70.71;99854.72;4918811;29;20048;-80
2021/08/16 03:48:54;;;;;;;8.88;5.28;;;;;;;20.50;70.65;99849.50;4908993;29;20047;-80
2021/08/16 03:51:22;;;;;;;8.40;5.32;;;;;;;20.51;70.50;99856.56;4923632;29;20142;-80
2021/08/16 03:53:48;;;;;;;6.00;4.78;;;;;;;20.49;70.65;99856.72;4907023;29;20051;-80
2021/08/16 03:56:15;;;;;;;8.15;5.03;;;;;;;20.48;70.48;99860.41;4920730;29;20052;-80
2021/08/16 03:58:42;;;;;;;9.13;4.68;;;;;;;20.50;69.58;99861.09;4930317;29;20048;-80
2021/08/16 04:01:10;;;;;;;9.70;4.40;;;;;;;20.50;69.53;99869.19;4950340;29;20100;-80
2021/08/16 04:03:39;;;;;;;9.18;5.18;;;;;;;20.52;69.40;99866.34;4935858;29;20088;-80
2021/08/16 04:06:06;;;;;;;8.13;4.25;;;;;;;20.55;67.99;99879.50;4941496;29;20063;-80
2021/08/16 04:08:38;;;;;;;8.27;4.70;;;;;;;20.63;67.63;99872.38;4935407;29;20080;-80
2021/08/16 04:11:07;;;;;;;8.75;4.25;;;;;;;20.66;66.91;99882.00;4940892;29;20043;-80
2021/08/16 04:13:36;;;;;;;8.18;3.72;;;;;;;20.70;65.90;99885.25;4935777;29;20044;-80
2021/08/16 04:16:04;;;;;;;7.68;4.38;;;;;;;20.67;65.73;99873.78;4935015;29;20124;-80
2021/08/16 04:18:31;;;;;;;6.85;4.10;;;;;;;20.69;65.81;99888.91;4938879;29;20103;-80
2021/08/16 04:20:59;;;;;;;7.63;4.10;;;;;;;20.68;65.81;99888.06;4937359;29;20135;-80
2021/08/16 04:23:29;;;;;;;6.57;4.00;;;;;;;20.66;65.29;99890.91;4943742;29;20040;-80
2021/08/16 04:25:57;;;;;;;9.27;3.85;;;;;;;20.69;65.32;99888.91;4950940;29;20444;-80
2021/08/16 04:28:23;;;;;;;8.82;4.03;;;;;;;20.71;64.58;99895.00;4936221;29;20127;-80
2021/08/16 04:30:51;;;;;;;7.55;3.90;;;;;;;20.70;64.61;99906.75;4932171;29;20044;-80
2021/08/16 04:33:18;;;;;;;7.28;3.42;;;;;;;20.64;63.94;99906.34;4934231;29;20112;-80
2021/08/16 04:35:44;;;;;;;5.65;3.33;;;;;;;20.57;64.21;99907.94;4934568;29;20099;-80
2021/08/16 04:38:12;;;;;;;7.10;3.40;;;;;;;20.54;63.75;99908.25;4937532;29;20067;-79
2021/08/16 04:40:38;;;;;;;7.55;3.30;;;;;;;20.47;62.73;99906.28;4932904;29;20051;-80
2021/08/16 04:43:05;;;;;;;6.20;2.90;;;;;;;20.40;60.85;99903.34;4938300;29;20067;-80
2021/08/16 04:45:32;;;;;;;7.88;3.15;;;;;;;20.39;61.04;99907.03;4941392;29;20039;-79
2021/08/16 04:47:58;;;;;;;6.10;2.58;;;;;;;20.32;60.66;99911.25;4932151;29;20077;-80
2021/08/16 04:50:25;;;;;;;5.20;2.72;;;;;;;20.26;61.31;99912.69;4931163;29;20057;-79
2021/08/16 04:52:53;;;;;;;7.13;3.38;;;;;;;20.30;61.39;99903.31;4933729;29;20064;-79
2021/08/16 04:55:21;;;;;;;5.28;3.30;;;;;;;20.31;61.80;99909.53;4934946;29;20075;-80
2021/08/16 04:57:48;;;;;;;6.03;3.22;;;;;;;20.35;62.12;99910.09;4927394;29;20508;-80
2021/08/16 05:00:18;;;;;;;5.68;3.20;;;;;;;20.39;62.46;99914.25;4924282;29;20048;-81
2021/08/16 05:02:45;;;;;;;5.37;3.13;;;;;;;20.39;61.06;99912.41;4919172;29;20050;-80
2021/08/16 05:05:15;;;;;;;7.00;3.00;;;;;;;20.42;61.65;99914.81;4918970;29;20088;-80
2021/08/16 05:07:53;;;;;;;4.53;3.00;;;;;;;20.46;62.12;99910.81;4915744;29;20095;-80
2021/08/16 05:10:26;;;;;;;6.00;3.08;;;;;;;20.49;62.09;99913.19;4921125;29;20077;-80
2021/08/16 05:12:55;;;;;;;7.90;4.75;;;;;;;20.49;62.28;99907.81;4916313;29;20641;-80
2021/08/16 05:15:22;;;;;;;4.85;2.95;;;;;;;20.48;62.13;99914.19;4914217;29;20098;-80
2021/08/16 05:17:50;;;;;;;6.18;2.78;;;;;;;20.41;61.59;99921.19;4914435;29;20107;-81
2021/08/16 05:20:20;;;;;;;6.15;3.03;;;;;;;20.39;60.24;99923.16;4915786;29;20059;-81
2021/08/16 05:22:47;;;;;;;5.15;2.30;;;;;;;20.33;60.63;99923.69;4914561;29;20067;-80
2021/08/16 05:25:16;;;;;;;4.22;2.38;;;;;;;20.30;60.13;99927.53;4915441;29;20044;-81
2021/08/16 05:27:42;;;;;;;4.93;2.53;;;;;;;20.24;60.28;99930.81;4897281;29;20151;-80
2021/08/16 05:30:10;;;;;;;3.47;2.13;;;;;;;20.24;60.08;99929.97;4918704;29;20050;-81
2021/08/16 05:32:38;;;;;;;6.60;2.67;;;;;;;20.27;59.72;99935.91;4916094;29;20051;-80
2021/08/16 05:35:07;;;;;;;10.35;3.65;;;;;;;20.27;59.24;99933.22;4917165;29;20492;-81
2021/08/16 05:37:34;;;;;;;7.80;2.47;;;;;;;20.27;58.73;99945.81;4913428;29;20079;-80
2021/08/16 05:40:02;;;;;;;5.20;2.15;;;;;;;20.29;56.47;99938.44;4921532;29;20095;-80
2021/08/16 05:42:28;;;;;;;4.35;2.30;;;;;;;20.26;56.12;99946.81;4909137;29;20536;-80
2021/08/16 05:44:55;;;;;;;6.03;2.30;;;;;;;20.31;56.60;99952.56;4910013;29;20054;-80
2021/08/16 05:47:22;;;;;;;6.82;2.13;;;;;;;20.35;55.54;99955.81;4897291;29;20410;-79
2021/08/16 05:49:49;;;;;;;6.10;1.75;;;;;;;20.33;55.50;99955.97;4916404;29;20045;-78
2021/08/16 05:52:16;;;;;;;9.57;2.08;;;;;;;20.41;56.09;99966.03;4911929;29;20066;-79
2021/08/16 05:54:42;;;;;;;6.90;2.10;;;;;;;20.51;55.78;99969.53;4910949;29;20051;-79
2021/08/16 05:57:09;;;;;;;8.05;1.98;;;;;;;20.52;55.09;99969.41;4909147;29;20047;-79
2021/08/16 05:59:36;;;;;;;4.07;2.00;;;;;;;20.43;55.10;99961.38;4906713;29;20421;-79
2021/08/16 06:02:03;;;;;;;6.70;2.40;;;;;;;20.44;53.91;99973.84;4910286;29;20135;-78
2021/08/16 06:04:30;;;;;;;4.45;1.85;;;;;;;20.39;54.42;99973.41;4910380;29;20119;-78
2021/08/16 06:06:56;;;;;;;5.47;1.98;;;;;;;20.44;56.26;99977.38;4915686;29;20082;-79
2021/08/16 06:09:23;;;;;;;7.43;2.13;;;;;;;20.54;55.18;99978.19;4908414;29;20051;-79
2021/08/16 06:11:49;;;;;;;6.25;1.83;;;;;;;20.65;54.42;99983.38;4894472;29;20476;-79
2021/08/16 06:14:16;;;;;;;3.47;2.00;;;;;;;20.69;54.30;99983.94;4914568;29;20056;-78
2021/08/16 06:16:43;;;;;;;4.20;1.88;;;;;;;20.76;54.64;99997.66;4909349;29;20131;-79
2021/08/16 06:19:09;;;;;;;5.60;1.92;;;;;;;20.91;53.96;99994.34;4908175;29;20155;-78
2021/08/16 06:21:42;;;;;;;4.65;1.85;;;;;;;21.10;52.98;100000.63;4909828;29;20071;-79
2021/08/16 06:24:10;;;;;;;4.38;1.70;;;;;;;21.32;52.69;100006.50;4910758;29;20051;-79
2021/08/16 06:26:38;;;;;;;5.90;1.60;;;;;;;21.51;51.45;100005.56;4901359;29;20543;-80
2021/08/16 06:29:06;;;;;;;7.18;1.90;;;;;;;21.78;49.86;100007.34;4914127;29;20174;-80
2021/08/16 06:31:32;;;;;;;8.43;1.77;;;;;;;22.10;49.33;100006.00;4922211;29;20058;-80
2021/08/16 06:34:00;;;;;;;2.75;1.30;;;;;;;22.46;47.52;100009.50;4903046;29;20052;-79
2021/08/16 06:36:27;;;;;;;5.57;1.50;;;;;;;22.68;47.03;100009.81;4916357;29;20044;-80
2021/08/16 06:38:53;;;;;;;4.65;1.63;;;;;;;23.11;47.78;100010.78;4913922;29;20067;-80
2021/08/16 06:41:20;;;;;;;3.85;1.58;;;;;;;23.51;45.88;100017.34;4901382;29;20060;-81
2021/08/16 06:43:48;;;;;;;5.50;1.80;;;;;;;23.75;44.74;100012.03;4920645;29;20059;-80
2021/08/16 06:46:15;;;;;;;7.32;1.65;;;;;;;23.63;45.20;100010.66;4921300;29;20526;-81
2021/08/16 06:48:43;;;;;;;5.07;1.58;;;;;;;23.56;45.47;100017.72;4916091;29;20054;-80
2021/08/16 06:51:10;;;;;;;6.05;1.80;;;;;;;23.66;45.79;100024.69;4916384;29;20135;-81
2021/08/16 06:53:37;;;;;;;7.63;1.92;;;;;;;23.91;44.64;100022.91;4903205;29;20049;-82
2021/08/16 06:56:04;;;;;;;8.05;2.05;;;;;;;23.94;45.09;100030.66;4920903;29;20051;-81
2021/08/16 06:58:32;;;;;;;6.70;1.45;;;;;;;24.18;44.75;100029.84;4919875;29;20054;-82
2021/08/16 07:00:59;;;;;;;6.00;1.80;;;;;;;24.59;44.30;100038.81;4925595;29;20119;-80
2021/08/16 07:03:30;;;;;;;5.95;2.15;;;;;;;24.82;42.32;100049.81;4918935;29;20047;-80
2021/08/16 07:05:56;;;;;;;4.07;1.70;;;;;;;24.67;43.03;100052.38;4917947;29;20445;-81
2021/08/16 07:08:23;;;;;;;6.88;1.80;;;;;;;24.17;43.23;100062.47;4918457;29;20067;-80
2021/08/16 07:10:50;;;;;;;4.38;1.58;;;;;;;23.55;44.61;100054.72;4920214;29;20420;-80
2021/08/16 07:13:16;;;;;;;6.35;1.20;;;;;;;23.07;45.52;100060.72;4919263;29;21057;-79
2021/08/16 07:15:44;;;;;;;3.35;1.50;;;;;;;22.63;46.68;100071.53;4902423;29;20036;-79
2021/08/16 07:18:11;;;;;;;3.28;1.10;;;;;;;22.33;48.00;100064.72;4912573;29;20048;-79
2021/08/16 07:20:38;;;;;;;6.57;1.50;;;;;;;22.14;48.27;100059.47;4912501;29;20056;-79
2021/08/16 07:23:04;;;;;;;3.40;1.33;;;;;;;21.95;48.63;100063.13;4916227;29;20139;-79
2021/08/16 07:25:31;;;;;;;6.63;1.65;;;;;;;21.90;48.71;100061.88;4915583;29;20052;-79
2021/08/16 07:27:58;;;;;;;5.07;1.30;;;;;;;21.72;49.00;100050.25;4915936;29;20058;-79
2021/08/16 07:30:25;;;;;;;4.18;1.30;;;;;;;21.71;49.35;100070.97;4899849;29;20048;-80
2021/08/16 07:32:51;;;;;;;2.60;1.10;;;;;;;21.73;48.96;100066.25;4905599;29;20070;-80
2021/08/16 07:35:18;;;;;;;2.38;1.02;;;;;;;21.74;49.20;100064.41;4922707;29;20648;-80
2021/08/16 07:37:45;;;;;;;4.75;1.27;;;;;;;21.65;49.73;100061.63;4919030;29;20412;-80
2021/08/16 07:40:13;;;;;;;4.63;1.40;;;;;;;21.72;49.83;100074.50;4904257;29;20051;-80
2021/08/16 07:42:40;;;;;;;2.58;1.20;;;;;;;21.70;49.85;100075.50;4916218;29;20083;-80
2021/08/16 07:45:08;;;;;;;5.00;1.50;;;;;;;21.73;48.84;100077.03;4917411;29;20064;-79
2021/08/16 07:47:35;;;;;;;3.88;1.20;;;;;;;21.63;49.33;100076.25;4915590;29;20056;-79
2021/08/16 07:50:02;;;;;;;5.32;1.33;;;;;;;21.63;49.50;100074.41;4896562;29;20068;-80
2021/08/16 07:52:54;;;;;;;3.28;0.93;;;;;;;21.58;49.74;100067.75;4915643;29;20666;-79
2021/08/16 07:55:21;;;;;;;2.70;1.10;;;;;;;21.56;49.66;100061.69;4919680;29;20056;-79
2021/08/16 07:57:48;;;;;;;4.18;1.10;;;;;;;21.54;50.01;100063.69;4916530;29;20062;-80
2021/08/16 08:00:15;;;;;;;2.25;0.82;;;;;;;21.61;49.50;100071.00;4916265;29;20060;-80
2021/08/16 08:02:50;;;;;;;2.13;1.13;;;;;;;21.63;49.97;100069.00;4915120;29;20056;-82
2021/08/16 08:05:20;;;;;;;2.35;1.15;;;;;;;21.61;49.63;100083.63;4912816;29;20103;-81
2021/08/16 08:07:47;;;;;;;3.27;1.17;;;;;;;21.59;48.76;100077.53;4914354;29;20052;-81
2021/08/16 08:10:17;;;;;;;2.70;0.90;;;;;;;21.62;49.04;100077.22;4913564;29;20071;-81
2021/08/16 08:12:45;;;;;;;2.25;1.13;;;;;;;21.60;48.94;100081.94;4910026;29;20049;-81
2021/08/16 08:15:16;;;;;;;2.78;1.27;;;;;;;21.67;49.93;100078.50;4921520;29;20052;-81
2021/08/16 08:17:43;;;;;;;2.58;1.00;;;;;;;21.76;49.61;100070.50;4915324;29;20760;-81
2021/08/16 08:20:10;;;;;;;3.92;0.90;;;;;;;21.86;49.32;100074.00;4915447;29;20059;-81
2021/08/16 08:22:37;;;;;;;2.95;1.20;;;;;;;21.93;49.29;100073.22;4917164;29;20080;-81
2021/08/16 08:25:04;;;;;;;2.65;1.10;;;;;;;21.97;48.78;100076.47;4920708;29;20051;-81
2021/08/16 08:27:32;;;;;;;2.85;1.08;;;;;;;22.01;49.46;100088.66;4928905;29;20095;-81
2021/08/16 08:29:58;;;;;;;5.57;1.33;;;;;;;21.97;49.22;100077.31;4931024;29;20087;-80
2021/08/16 08:32:25;;;;;;;3.65;1.23;;;;;;;22.05;49.01;100076.56;4926258;29;20058;-80
2021/08/16 08:34:52;;;;;;;5.72;1.40;;;;;;;22.03;48.83;100081.28;4935340;29;20119;-80
2021/08/16 08:37:19;;;;;;;2.42;1.00;;;;;;;21.96;49.01;100083.69;4932704;29;20103;-80
2021/08/16 08:39:47;;;;;;;3.58;1.10;;;;;;;21.90;49.75;100078.91;4936229;29;20028;-80
2021/08/16 08:42:14;;;;;;;5.05;1.05;;;;;;;21.86;49.80;100077.53;4933506;29;20056;-80
2021/08/16 08:44:42;;;;;;;2.58;1.25;;;;;;;21.84;49.99;100087.63;4923296;29;20689;-80
2021/08/16 08:47:12;;;;;;;6.63;1.73;;;;;;;21.76;49.85;100076.72;4925824;29;20079;-80
2021/08/16 08:50:03;;;;;;;3.67;1.00;;;;;;;21.71;50.17;100081.75;4920606;29;20107;-81
2021/08/16 08:52:31;;;;;;;4.50;1.25;;;;;;;21.68;49.89;100082.03;4910189;29;20044;-80
2021/08/16 08:54:57;;;;;;;2.78;1.05;;;;;;;21.68;50.70;100088.28;4915302;29;20055;-80
2021/08/16 08:57:44;;;;;;;3.05;1.00;;;;;;;21.63;50.44;100084.31;4935142;29;20050;-80
2021/08/16 09:00:16;;;;;;;3.90;1.10;;;;;;;21.65;50.45;100079.63;4935939;29;20071;-81
2021/08/16 09:03:03;;;;;;;2.78;1.08;;;;;;;21.69;50.64;100079.19;4921924;29;20515;-80
2021/08/16 09:05:31;;;;;;;4.45;1.17;;;;;;;21.81;50.62;100073.59;4915330;29;20103;-81
2021/08/16 09:08:01;;;;;;;3.60;1.00;;;;;;;21.87;50.08;100081.94;4918573;29;20052;-80
2021/08/16 09:10:28;;;;;;;3.92;0.88;;;;;;;21.90;50.70;100086.13;4918985;29;20420;-81
2021/08/16 09:13:00;;;;;;;9.50;2.55;;;;;;;21.95;50.80;100083.84;4914944;29;20063;-81
2021/08/16 09:15:29;;;;;;;4.40;1.10;;;;;;;22.03;50.39;100083.97;4915842;29;20044;-80
2021/08/16 09:18:02;;;;;;;4.07;1.23;;;;;;;22.10;50.19;100086.91;4918258;29;20058;-80
2021/08/16 09:20:33;;;;;;;2.85;1.00;;;;;;;22.17;49.98;100088.84;4912732;29;20052;-81
2021/08/16 09:23:04;;;;;;;2.78;0.82;;;;;;;22.14;50.21;100080.19;4916335;29;20759;-81
2021/08/16 09:25:36;;;;;;;2.60;1.00;;;;;;;22.00;50.55;100082.44;4915638;29;20112;-80
2021/08/16 09:28:04;;;;;;;1.98;0.88;;;;;;;21.90;50.20;100083.44;4918533;29;20060;-80
2021/08/16 09:30:38;;;;;;;3.08;1.08;;;;;;;21.65;51.52;100088.56;4916034;29;20135;-81
2021/08/16 09:33:18;;;;;;;3.85;1.30;;;;;;;21.49;51.60;100082.13;4921687;29;20051;-82
2021/08/16 09:35:56;;;;;;;2.85;1.30;;;;;;;21.54;52.26;100087.94;4921957;29;20071;-81
2021/08/16 09:38:40;;;;;;;3.28;1.15;;;;;;;21.55;51.54;100089.63;4918891;29;20051;-80
2021/08/16 09:41:28;;;;;;;4.35;1.42;;;;;;;21.54;51.36;100085.25;4902896;29;20555;-80
2021/08/16 09:44:13;;;;;;;4.68;1.17;;;;;;;21.65;51.13;100088.56;4915714;29;20139;-79
2021/08/16 09:46:44;;;;;;;2.08;1.08;;;;;;;21.72;51.58;100086.13;4915424;29;20052;-80
2021/08/16 09:49:12;;;;;;;3.83;1.10;;;;;;;21.77;50.88;100074.88;4925502;29;20507;-80
2021/08/16 09:51:38;;;;;;;3.83;1.10;;;;;;;21.70;51.14;100090.81;4919655;29;20076;-81
2021/08/16 09:54:05;;;;;;;2.20;1.00;;;;;;;21.76;50.67;100073.19;4923845;29;20700;-81
2021/08/16 09:56:33;;;;;;;3.55;1.65;;;;;;;21.79;51.03;100078.28;4921123;29;20056;-80
2021/08/16 09:59:00;;;;;;;5.90;1.45;;;;;;;21.96;49.83;100088.25;4915882;29;20543;-80
2021/08/16 10:01:30;;;;;;;3.92;1.30;;;;;;;22.03;49.92;100075.88;4917966;29;20074;-80
2021/08/16 10:03:57;;;;;;;2.70;1.20;;;;;;;22.21;50.05;100074.03;4905848;29;20609;-80
2021/08/16 10:06:25;;;;;;;4.10;1.25;;;;;;;22.27;49.90;100064.47;4922433;29;20075;-80
2021/08/16 10:08:55;;;;;;;2.80;1.10;;;;;;;22.37;49.69;100076.03;4919464;29;20048;-80
2021/08/16 10:11:23;;;;;;;3.80;1.17;;;;;;;22.34;49.79;100073.66;4920590;29;20063;-81
2021/08/16 10:13:53;;;;;;;3.35;1.90;;;;;;;22.39;50.18;100071.31;4921223;29;20055;-81
2021/08/16 10:16:28;;;;;;;6.60;1.60;;;;;;;22.47;49.93;100062.47;4919530;29;20068;-80
2021/08/16 10:19:07;;;;;;;4.10;1.60;;;;;;;22.49;49.86;100066.72;4919915;29;20048;-81
2021/08/16 10:21:37;;;;;;;4.88;1.45;;;;;;;22.43;50.01;100067.31;4917335;29;20763;-78
2021/08/16 10:24:23;;;;;;;7.70;2.92;;;;;;;22.21;50.38;100057.00;4916234;29;20048;-81
2021/08/16 10:27:04;;;;;;;4.80;1.80;;;;;;;22.18;51.27;100063.56;4915041;29;20061;-81
2021/08/16 10:29:32;;;;;;;10.40;3.10;;;;;;;22.14;51.20;100056.78;4914902;29;20052;-80
2021/08/16 10:32:00;;;;;;;6.25;3.08;;;;;;;22.26;51.01;100062.78;4916690;29;20063;-80
2021/08/16 10:34:35;;;;;;;3.80;1.80;;;;;;;22.36;50.86;100066.22;4919266;29;20055;-80
2021/08/16 10:37:10;;;;;;;6.00;2.47;;;;;;;22.57;50.87;100060.50;4917542;29;20054;-81
2021/08/16 10:39:41;;;;;;;7.32;2.53;;;;;;;22.64;49.36;100051.63;4919576;29;20068;-81
2021/08/16 10:42:16;;;;;;;4.90;1.95;;;;;;;22.54;49.77;100053.56;4924365;29;20066;-80
2021/08/16 10:44:53;;;;;;;5.00;1.80;;;;;;;22.44;49.35;100043.88;4919847;29;20075;-81
2021/08/16 10:47:32;;;;;;;2.95;1.40;;;;;;;22.30;49.31;100045.28;4923434;29;20036;-79
2021/08/16 10:50:06;;;;;;;4.63;1.58;;;;;;;22.20;49.79;100052.59;4930795;29;20083;-78
2021/08/16 10:52:36;;;;;;;8.10;2.22;;;;;;;22.15;50.88;100052.22;4935195;29;20060;-80
2021/08/16 10:55:25;;;;;;;3.72;1.73;;;;;;;22.09;50.95;100044.75;4935006;29;20032;-80
2021/08/16 10:57:54;;;;;;;3.58;1.33;;;;;;;22.05;50.70;100046.91;4929524;29;20052;-80
2021/08/16 11:00:22;;;;;;;3.70;1.48;;;;;;;21.90;50.83;100027.69;4935582;29;20088;-80
2021/08/16 11:02:58;;;;;;;5.10;1.60;;;;;;;22.02;51.15;100050.78;4934463;29;20143;-80
2021/08/16 11:05:43;;;;;;;4.80;1.95;;;;;;;21.99;51.11;100045.69;4937599;29;20083;-81
2021/08/16 11:08:10;;;;;;;4.18;1.90;;;;;;;22.03;51.31;100043.53;4934445;29;20058;-80
2021/08/16 11:10:41;;;;;;;5.82;2.22;;;;;;;22.05;50.78;100046.91;4929621;29;20108;-80
2021/08/16 11:13:14;;;;;;;4.70;1.95;;;;;;;22.07;51.19;100049.44;4929173;29;20040;-80
2021/08/16 11:15:42;;;;;;;3.55;1.67;;;;;;;22.05;50.78;100036.97;4925611;29;20063;-81
2021/08/16 11:18:11;;;;;;;4.55;1.98;;;;;;;22.01;50.75;100035.59;4918890;29;20091;-81
2021/08/16 11:20:38;;;;;;;5.90;1.98;;;;;;;22.02;51.20;100033.75;4917730;29;20095;-80
2021/08/16 11:23:04;;;;;;;3.63;1.80;;;;;;;22.00;51.56;100031.19;4924193;29;20044;-80
2021/08/16 11:25:31;;;;;;;4.50;2.00;;;;;;;21.93;51.85;100037.31;4914161;29;20071;-82
2021/08/16 11:28:06;;;;;;;4.07;2.08;;;;;;;21.88;52.13;100031.56;4911735;29;20048;-82
2021/08/16 11:30:35;;;;;;;4.28;1.80;;;;;;;21.86;51.86;100023.63;4915083;29;20070;-81
2021/08/16 11:33:01;;;;;;;4.43;2.05;;;;;;;21.85;52.18;100018.38;4921572;29;20920;-80
2021/08/16 11:35:28;;;;;;;4.32;2.17;;;;;;;21.94;51.75;100014.75;4922372;29;20046;-81